sensor_id;sensor_type;location;lat;lon;timestamp;temperature;humidity
22779;DHT22;11556;51.194;3.800;2023-04-26T00:00:43;4.70;99.90
22779;DHT22;11556;51.194;3.800;2023-04-26T00:03:10;4.60;99.90
22779;DHT22;11556;51.194;3.800;2023-04-26T00:05:37;4.70;99.90
22779;DHT22;11556;51.194;3.800;2023-04-26T00:08:03;4.70;99.90
22779;DHT22;11556;51.194;3.800;2023-04-26T00:10:29;4.80;99.90
22779;DHT22;11556;51.194;3.800;2023-04-26T00:12:56;4.90;99.90
22779;DHT22;11556;51.194;3.800;2023-04-26T00:15:21;5.00;99.90
22779;DHT22;11556;51.194;3.800;2023-04-26T00:17:47;5.20;99.90
22779;DHT22;11556;51.194;3.800;2023-04-26T00:20:13;5.20;99.90
22779;DHT22;11556;51.194;3.800;2023-04-26T00:22:39;5.10;99.90
22779;DHT22;11556;51.194;3.800;2023-04-26T00:25:05;5.10;99.90
22779;DHT22;11556;51.194;3.800;2023-04-26T00:27:31;5.10;99.90
22779;DHT22;11556;51.194;3.800;2023-04-26T00:29:57;5.10;99.90
22779;DHT22;11556;51.194;3.800;2023-04-26T00:32:22;5.10;99.90
22779;DHT22;11556;51.194;3.800;2023-04-26T00:34:48;5.20;99.90
22779;DHT22;11556;51.194;3.800;2023-04-26T00:37:14;5.20;99.90
22779;DHT22;11556;51.194;3.800;2023-04-26T00:39:39;5.10;99.90
22779;DHT22;11556;51.194;3.800;2023-04-26T00:42:05;4.90;99.90
22779;DHT22;11556;51.194;3.800;2023-04-26T00:44:31;4.70;99.90
22779;DHT22;11556;51.194;3.800;2023-04-26T00:46:56;4.60;99.90
22779;DHT22;11556;51.194;3.800;2023-04-26T00:49:23;4.60;99.90
22779;DHT22;11556;51.194;3.800;2023-04-26T00:51:51;4.70;99.90
22779;DHT22;11556;51.194;3.800;2023-04-26T00:54:19;4.80;99.90
22779;DHT22;11556;51.194;3.800;2023-04-26T00:56:45;4.70;99.90
22779;DHT22;11556;51.194;3.800;2023-04-26T00:59:11;4.50;99.90
22779;DHT22;11556;51.194;3.800;2023-04-26T01:01:37;4.40;99.90
22779;DHT22;11556;51.194;3.800;2023-04-26T01:04:05;4.30;99.90
22779;DHT22;11556;51.194;3.800;2023-04-26T01:06:34;4.30;99.90
22779;DHT22;11556;51.194;3.800;2023-04-26T01:09:01;4.40;99.90
22779;DHT22;11556;51.194;3.800;2023-04-26T01:11:28;4.40;99.90
22779;DHT22;11556;51.194;3.800;2023-04-26T01:13:55;4.40;99.90
22779;DHT22;11556;51.194;3.800;2023-04-26T01:16:22;4.50;99.90
22779;DHT22;11556;51.194;3.800;2023-04-26T01:18:52;4.60;99.90
22779;DHT22;11556;51.194;3.800;2023-04-26T01:21:21;4.60;99.90
22779;DHT22;11556;51.194;3.800;2023-04-26T01:23:48;4.50;99.90
22779;DHT22;11556;51.194;3.800;2023-04-26T01:26:14;4.40;99.90
22779;DHT22;11556;51.194;3.800;2023-04-26T01:28:40;4.30;99.90
22779;DHT22;11556;51.194;3.800;2023-04-26T01:31:06;4.30;99.90
22779;DHT22;11556;51.194;3.800;2023-04-26T01:33:32;4.20;99.90
22779;DHT22;11556;51.194;3.800;2023-04-26T01:35:57;4.10;99.90
22779;DHT22;11556;51.194;3.800;2023-04-26T01:38:23;4.10;99.90
22779;DHT22;11556;51.194;3.800;2023-04-26T01:40:49;4.00;99.90
22779;DHT22;11556;51.194;3.800;2023-04-26T01:43:14;4.00;99.90
22779;DHT22;11556;51.194;3.800;2023-04-26T01:45:45;4.00;99.90
22779;DHT22;11556;51.194;3.800;2023-04-26T01:48:12;3.90;99.90
22779;DHT22;11556;51.194;3.800;2023-04-26T01:50:38;3.90;99.90
22779;DHT22;11556;51.194;3.800;2023-04-26T01:53:03;4.00;99.90
22779;DHT22;11556;51.194;3.800;2023-04-26T01:55:29;4.00;99.90
22779;DHT22;11556;51.194;3.800;2023-04-26T01:57:55;3.90;99.90
22779;DHT22;11556;51.194;3.800;2023-04-26T02:00:21;3.90;99.90
22779;DHT22;11556;51.194;3.800;2023-04-26T02:02:46;3.80;99.90
22779;DHT22;11556;51.194;3.800;2023-04-26T02:05:12;3.80;99.90
22779;DHT22;11556;51.194;3.800;2023-04-26T02:07:38;3.90;99.90
22779;DHT22;11556;51.194;3.800;2023-04-26T02:10:04;3.90;99.90
22779;DHT22;11556;51.194;3.800;2023-04-26T02:12:30;4.00;99.90
22779;DHT22;11556;51.194;3.800;2023-04-26T02:14:56;4.10;99.90
22779;DHT22;11556;51.194;3.800;2023-04-26T02:17:23;4.20;99.90
22779;DHT22;11556;51.194;3.800;2023-04-26T02:19:50;4.10;99.90
22779;DHT22;11556;51.194;3.800;2023-04-26T02:22:16;4.10;99.90
22779;DHT22;11556;51.194;3.800;2023-04-26T02:24:42;4.10;99.90
22779;DHT22;11556;51.194;3.800;2023-04-26T02:27:07;4.20;99.90
22779;DHT22;11556;51.194;3.800;2023-04-26T02:29:33;4.10;99.90
22779;DHT22;11556;51.194;3.800;2023-04-26T02:32:01;4.00;99.90
22779;DHT22;11556;51.194;3.800;2023-04-26T02:34:27;4.00;99.90
22779;DHT22;11556;51.194;3.800;2023-04-26T02:36:52;4.00;99.90
22779;DHT22;11556;51.194;3.800;2023-04-26T02:39:18;4.10;99.90
22779;DHT22;11556;51.194;3.800;2023-04-26T02:41:45;4.00;99.90
22779;DHT22;11556;51.194;3.800;2023-04-26T02:44:11;4.00;99.90
22779;DHT22;11556;51.194;3.800;2023-04-26T02:46:36;4.00;99.90
22779;DHT22;11556;51.194;3.800;2023-04-26T02:49:02;4.00;99.90
22779;DHT22;11556;51.194;3.800;2023-04-26T02:51:28;4.00;99.90
22779;DHT22;11556;51.194;3.800;2023-04-26T02:53:53;4.00;99.90
22779;DHT22;11556;51.194;3.800;2023-04-26T02:56:19;4.10;99.90
22779;DHT22;11556;51.194;3.800;2023-04-26T02:58:45;4.20;99.90
22779;DHT22;11556;51.194;3.800;2023-04-26T03:01:11;4.10;99.90
22779;DHT22;11556;51.194;3.800;2023-04-26T03:03:38;4.00;99.90
22779;DHT22;11556;51.194;3.800;2023-04-26T03:06:04;4.00;99.90
22779;DHT22;11556;51.194;3.800;2023-04-26T03:08:30;3.80;99.90
22779;DHT22;11556;51.194;3.800;2023-04-26T03:10:56;3.90;99.90
22779;DHT22;11556;51.194;3.800;2023-04-26T03:13:22;3.90;99.90
22779;DHT22;11556;51.194;3.800;2023-04-26T03:15:49;4.00;99.90
22779;DHT22;11556;51.194;3.800;2023-04-26T03:18:16;4.10;99.90
22779;DHT22;11556;51.194;3.800;2023-04-26T03:20:42;4.10;99.90
22779;DHT22;11556;51.194;3.800;2023-04-26T03:23:08;4.10;99.90
22779;DHT22;11556;51.194;3.800;2023-04-26T03:25:33;4.20;99.90
22779;DHT22;11556;51.194;3.800;2023-04-26T03:27:59;4.20;99.90
22779;DHT22;11556;51.194;3.800;2023-04-26T03:30:25;4.20;99.90
22779;DHT22;11556;51.194;3.800;2023-04-26T03:32:50;4.30;99.90
22779;DHT22;11556;51.194;3.800;2023-04-26T03:35:17;4.20;99.90
22779;DHT22;11556;51.194;3.800;2023-04-26T03:37:43;4.10;99.90
22779;DHT22;11556;51.194;3.800;2023-04-26T03:40:09;4.10;99.90
22779;DHT22;11556;51.194;3.800;2023-04-26T03:42:35;4.00;99.90
22779;DHT22;11556;51.194;3.800;2023-04-26T03:45:02;3.90;99.90
22779;DHT22;11556;51.194;3.800;2023-04-26T03:47:29;3.90;99.90
22779;DHT22;11556;51.194;3.800;2023-04-26T03:49:55;3.90;99.90
22779;DHT22;11556;51.194;3.800;2023-04-26T03:52:21;3.90;99.90
22779;DHT22;11556;51.194;3.800;2023-04-26T03:54:46;4.00;99.90
22779;DHT22;11556;51.194;3.800;2023-04-26T03:57:12;4.10;99.90
22779;DHT22;11556;51.194;3.800;2023-04-26T03:59:37;4.10;99.90
22779;DHT22;11556;51.194;3.800;2023-04-26T04:02:03;4.20;99.90
22779;DHT22;11556;51.194;3.800;2023-04-26T04:04:29;4.10;99.90
22779;DHT22;11556;51.194;3.800;2023-04-26T04:06:55;4.10;99.90
22779;DHT22;11556;51.194;3.800;2023-04-26T04:09:21;4.10;99.90
22779;DHT22;11556;51.194;3.800;2023-04-26T04:11:46;4.10;99.90
22779;DHT22;11556;51.194;3.800;2023-04-26T04:14:12;4.10;99.90
22779;DHT22;11556;51.194;3.800;2023-04-26T04:16:38;4.10;99.90
22779;DHT22;11556;51.194;3.800;2023-04-26T04:19:03;4.10;99.90
22779;DHT22;11556;51.194;3.800;2023-04-26T04:21:29;4.20;99.90
22779;DHT22;11556;51.194;3.800;2023-04-26T04:23:56;4.20;99.90
22779;DHT22;11556;51.194;3.800;2023-04-26T04:26:22;4.30;99.90
22779;DHT22;11556;51.194;3.800;2023-04-26T04:28:48;4.30;99.90
22779;DHT22;11556;51.194;3.800;2023-04-26T04:31:13;4.30;99.90
22779;DHT22;11556;51.194;3.800;2023-04-26T04:33:39;4.40;99.90
22779;DHT22;11556;51.194;3.800;2023-04-26T04:36:06;4.40;99.90
22779;DHT22;11556;51.194;3.800;2023-04-26T04:38:32;4.40;99.90
22779;DHT22;11556;51.194;3.800;2023-04-26T04:40:58;4.40;99.90
22779;DHT22;11556;51.194;3.800;2023-04-26T04:43:23;4.50;99.90
22779;DHT22;11556;51.194;3.800;2023-04-26T04:45:49;4.50;99.90
22779;DHT22;11556;51.194;3.800;2023-04-26T04:48:15;4.60;99.90
22779;DHT22;11556;51.194;3.800;2023-04-26T04:50:41;4.70;99.90
22779;DHT22;11556;51.194;3.800;2023-04-26T04:53:07;4.80;99.90
22779;DHT22;11556;51.194;3.800;2023-04-26T04:55:33;4.80;99.90
22779;DHT22;11556;51.194;3.800;2023-04-26T04:58:02;4.80;99.90
22779;DHT22;11556;51.194;3.800;2023-04-26T05:00:28;4.90;99.90
22779;DHT22;11556;51.194;3.800;2023-04-26T05:02:54;5.10;99.90
22779;DHT22;11556;51.194;3.800;2023-04-26T05:05:21;5.40;99.90
22779;DHT22;11556;51.194;3.800;2023-04-26T05:07:47;5.50;99.90
22779;DHT22;11556;51.194;3.800;2023-04-26T05:10:13;5.60;99.90
22779;DHT22;11556;51.194;3.800;2023-04-26T05:12:40;5.70;99.90
22779;DHT22;11556;51.194;3.800;2023-04-26T05:15:06;5.80;99.90
22779;DHT22;11556;51.194;3.800;2023-04-26T05:17:32;6.10;99.90
22779;DHT22;11556;51.194;3.800;2023-04-26T05:19:58;6.30;99.90
22779;DHT22;11556;51.194;3.800;2023-04-26T05:22:25;6.60;99.90
22779;DHT22;11556;51.194;3.800;2023-04-26T05:24:51;7.20;99.90
22779;DHT22;11556;51.194;3.800;2023-04-26T05:27:16;7.80;99.90
22779;DHT22;11556;51.194;3.800;2023-04-26T05:29:42;8.50;99.90
22779;DHT22;11556;51.194;3.800;2023-04-26T05:32:08;9.30;99.90
22779;DHT22;11556;51.194;3.800;2023-04-26T05:34:33;10.20;99.90
22779;DHT22;11556;51.194;3.800;2023-04-26T05:36:59;10.60;99.90
22779;DHT22;11556;51.194;3.800;2023-04-26T05:39:25;10.60;99.90
22779;DHT22;11556;51.194;3.800;2023-04-26T05:41:51;10.70;99.90
22779;DHT22;11556;51.194;3.800;2023-04-26T05:44:16;10.70;99.90
22779;DHT22;11556;51.194;3.800;2023-04-26T05:46:42;10.60;99.90
22779;DHT22;11556;51.194;3.800;2023-04-26T05:49:08;10.50;99.90
22779;DHT22;11556;51.194;3.800;2023-04-26T05:51:33;10.70;99.90
22779;DHT22;11556;51.194;3.800;2023-04-26T05:53:59;10.70;99.90
22779;DHT22;11556;51.194;3.800;2023-04-26T05:56:25;10.80;99.90
22779;DHT22;11556;51.194;3.800;2023-04-26T05:58:51;10.70;99.90
22779;DHT22;11556;51.194;3.800;2023-04-26T06:01:17;10.70;99.90
22779;DHT22;11556;51.194;3.800;2023-04-26T06:03:44;10.80;99.90
22779;DHT22;11556;51.194;3.800;2023-04-26T06:06:10;10.90;99.90
22779;DHT22;11556;51.194;3.800;2023-04-26T06:08:36;11.70;99.90
22779;DHT22;11556;51.194;3.800;2023-04-26T06:11:01;13.10;99.90
22779;DHT22;11556;51.194;3.800;2023-04-26T06:13:27;14.50;99.90
22779;DHT22;11556;51.194;3.800;2023-04-26T06:15:53;14.90;99.90
22779;DHT22;11556;51.194;3.800;2023-04-26T06:18:19;15.20;99.90
22779;DHT22;11556;51.194;3.800;2023-04-26T06:20:45;15.20;99.90
22779;DHT22;11556;51.194;3.800;2023-04-26T06:23:11;14.70;99.90
22779;DHT22;11556;51.194;3.800;2023-04-26T06:25:37;14.00;99.90
22779;DHT22;11556;51.194;3.800;2023-04-26T06:28:08;13.40;99.90
22779;DHT22;11556;51.194;3.800;2023-04-26T06:30:34;13.00;99.90
22779;DHT22;11556;51.194;3.800;2023-04-26T06:33:00;12.70;99.90
22779;DHT22;11556;51.194;3.800;2023-04-26T06:35:25;12.50;99.90
22779;DHT22;11556;51.194;3.800;2023-04-26T06:37:51;12.20;99.90
22779;DHT22;11556;51.194;3.800;2023-04-26T06:40:17;11.90;99.90
22779;DHT22;11556;51.194;3.800;2023-04-26T06:42:42;11.90;99.90
22779;DHT22;11556;51.194;3.800;2023-04-26T06:45:08;12.50;99.90
22779;DHT22;11556;51.194;3.800;2023-04-26T06:47:34;13.90;99.90
22779;DHT22;11556;51.194;3.800;2023-04-26T06:50:01;15.50;99.90
22779;DHT22;11556;51.194;3.800;2023-04-26T06:52:27;15.90;99.90
22779;DHT22;11556;51.194;3.800;2023-04-26T06:54:54;15.80;99.90
22779;DHT22;11556;51.194;3.800;2023-04-26T06:57:19;15.40;99.90
22779;DHT22;11556;51.194;3.800;2023-04-26T06:59:45;15.00;99.90
22779;DHT22;11556;51.194;3.800;2023-04-26T07:02:11;14.60;99.90
22779;DHT22;11556;51.194;3.800;2023-04-26T07:04:37;14.10;99.90
22779;DHT22;11556;51.194;3.800;2023-04-26T07:07:02;13.70;99.90
22779;DHT22;11556;51.194;3.800;2023-04-26T07:09:28;13.60;99.90
22779;DHT22;11556;51.194;3.800;2023-04-26T07:11:54;13.70;99.90
22779;DHT22;11556;51.194;3.800;2023-04-26T07:14:19;13.80;99.90
22779;DHT22;11556;51.194;3.800;2023-04-26T07:16:45;13.80;99.90
22779;DHT22;11556;51.194;3.800;2023-04-26T07:19:11;14.10;99.90
22779;DHT22;11556;51.194;3.800;2023-04-26T07:21:36;14.20;99.90
22779;DHT22;11556;51.194;3.800;2023-04-26T07:24:02;14.40;99.90
22779;DHT22;11556;51.194;3.800;2023-04-26T07:26:28;14.70;99.90
22779;DHT22;11556;51.194;3.800;2023-04-26T07:28:54;14.90;99.90
22779;DHT22;11556;51.194;3.800;2023-04-26T07:31:20;15.00;99.90
22779;DHT22;11556;51.194;3.800;2023-04-26T07:33:45;14.80;99.90
22779;DHT22;11556;51.194;3.800;2023-04-26T07:36:11;14.70;99.90
22779;DHT22;11556;51.194;3.800;2023-04-26T07:38:37;14.60;99.90
22779;DHT22;11556;51.194;3.800;2023-04-26T07:41:03;14.40;99.90
22779;DHT22;11556;51.194;3.800;2023-04-26T07:43:29;14.50;98.80
22779;DHT22;11556;51.194;3.800;2023-04-26T07:45:59;14.70;99.10
22779;DHT22;11556;51.194;3.800;2023-04-26T07:48:25;14.90;99.00
22779;DHT22;11556;51.194;3.800;2023-04-26T07:50:51;15.20;97.90
22779;DHT22;11556;51.194;3.800;2023-04-26T07:53:16;14.50;96.60
22779;DHT22;11556;51.194;3.800;2023-04-26T07:55:42;14.00;97.20
22779;DHT22;11556;51.194;3.800;2023-04-26T07:58:08;13.90;99.50
22779;DHT22;11556;51.194;3.800;2023-04-26T08:00:36;14.20;97.90
22779;DHT22;11556;51.194;3.800;2023-04-26T08:03:03;14.90;94.50
22779;DHT22;11556;51.194;3.800;2023-04-26T08:05:29;15.40;92.90
22779;DHT22;11556;51.194;3.800;2023-04-26T08:07:55;15.50;92.40
22779;DHT22;11556;51.194;3.800;2023-04-26T08:10:21;15.90;91.10
22779;DHT22;11556;51.194;3.800;2023-04-26T08:12:46;16.00;90.10
22779;DHT22;11556;51.194;3.800;2023-04-26T08:15:12;16.80;88.70
22779;DHT22;11556;51.194;3.800;2023-04-26T08:17:38;16.60;86.50
22779;DHT22;11556;51.194;3.800;2023-04-26T08:20:04;16.00;86.50
22779;DHT22;11556;51.194;3.800;2023-04-26T08:22:33;16.30;87.00
22779;DHT22;11556;51.194;3.800;2023-04-26T08:24:59;15.90;86.70
22779;DHT22;11556;51.194;3.800;2023-04-26T08:27:25;14.70;90.80
22779;DHT22;11556;51.194;3.800;2023-04-26T08:29:52;14.80;91.50
22779;DHT22;11556;51.194;3.800;2023-04-26T08:32:18;15.20;90.90
22779;DHT22;11556;51.194;3.800;2023-04-26T08:34:44;14.10;92.00
22779;DHT22;11556;51.194;3.800;2023-04-26T08:37:10;14.60;94.00
22779;DHT22;11556;51.194;3.800;2023-04-26T08:39:36;15.50;91.80
22779;DHT22;11556;51.194;3.800;2023-04-26T08:42:12;16.80;87.30
22779;DHT22;11556;51.194;3.800;2023-04-26T08:44:41;17.40;84.20
22779;DHT22;11556;51.194;3.800;2023-04-26T08:47:15;18.00;82.60
22779;DHT22;11556;51.194;3.800;2023-04-26T08:49:42;18.50;82.10
22779;DHT22;11556;51.194;3.800;2023-04-26T08:52:11;18.20;74.30
22779;DHT22;11556;51.194;3.800;2023-04-26T08:54:38;17.40;77.20
22779;DHT22;11556;51.194;3.800;2023-04-26T08:57:04;17.30;78.70
22779;DHT22;11556;51.194;3.800;2023-04-26T08:59:33;17.40;81.90
22779;DHT22;11556;51.194;3.800;2023-04-26T09:02:01;17.80;78.80
22779;DHT22;11556;51.194;3.800;2023-04-26T09:04:27;18.00;75.60
22779;DHT22;11556;51.194;3.800;2023-04-26T09:06:55;17.60;76.00
22779;DHT22;11556;51.194;3.800;2023-04-26T09:09:26;16.30;77.90
22779;DHT22;11556;51.194;3.800;2023-04-26T09:14:18;17.00;82.40
22779;DHT22;11556;51.194;3.800;2023-04-26T09:16:44;17.80;76.70
22779;DHT22;11556;51.194;3.800;2023-04-26T09:19:09;18.20;72.20
22779;DHT22;11556;51.194;3.800;2023-04-26T09:21:42;18.20;76.10
22779;DHT22;11556;51.194;3.800;2023-04-26T09:24:09;18.30;75.80
22779;DHT22;11556;51.194;3.800;2023-04-26T09:26:35;18.50;73.10
22779;DHT22;11556;51.194;3.800;2023-04-26T09:29:17;18.60;72.70
22779;DHT22;11556;51.194;3.800;2023-04-26T09:31:47;19.10;74.50
22779;DHT22;11556;51.194;3.800;2023-04-26T09:34:14;19.50;72.20
22779;DHT22;11556;51.194;3.800;2023-04-26T09:37:00;19.60;67.40
22779;DHT22;11556;51.194;3.800;2023-04-26T09:41:57;17.10;72.70
22779;DHT22;11556;51.194;3.800;2023-04-26T09:44:24;16.40;74.80
22779;DHT22;11556;51.194;3.800;2023-04-26T09:47:04;16.00;76.50
22779;DHT22;11556;51.194;3.800;2023-04-26T09:49:32;15.90;75.70
22779;DHT22;11556;51.194;3.800;2023-04-26T09:52:02;15.90;74.10
22779;DHT22;11556;51.194;3.800;2023-04-26T09:54:42;14.00;79.70
22779;DHT22;11556;51.194;3.800;2023-04-26T09:57:09;12.60;85.20
22779;DHT22;11556;51.194;3.800;2023-04-26T09:59:39;12.90;87.20
22779;DHT22;11556;51.194;3.800;2023-04-26T10:02:16;13.30;85.00
22779;DHT22;11556;51.194;3.800;2023-04-26T10:04:44;13.40;83.80
22779;DHT22;11556;51.194;3.800;2023-04-26T10:07:14;14.10;80.80
22779;DHT22;11556;51.194;3.800;2023-04-26T10:09:40;14.20;79.40
22779;DHT22;11556;51.194;3.800;2023-04-26T10:12:09;14.50;79.80
22779;DHT22;11556;51.194;3.800;2023-04-26T10:14:35;14.60;78.50
22779;DHT22;11556;51.194;3.800;2023-04-26T10:17:02;14.60;76.30
22779;DHT22;11556;51.194;3.800;2023-04-26T10:19:29;13.80;78.40
22779;DHT22;11556;51.194;3.800;2023-04-26T10:22:00;13.80;81.40
22779;DHT22;11556;51.194;3.800;2023-04-26T10:24:28;14.20;79.60
22779;DHT22;11556;51.194;3.800;2023-04-26T10:26:54;14.80;76.00
22779;DHT22;11556;51.194;3.800;2023-04-26T10:29:25;14.70;75.60
22779;DHT22;11556;51.194;3.800;2023-04-26T10:34:28;12.80;85.00
22779;DHT22;11556;51.194;3.800;2023-04-26T10:39:33;12.60;88.00
22779;DHT22;11556;51.194;3.800;2023-04-26T10:42:25;13.40;85.40
22779;DHT22;11556;51.194;3.800;2023-04-26T10:44:58;14.30;82.90
22779;DHT22;11556;51.194;3.800;2023-04-26T10:47:28;14.60;81.30
22779;DHT22;11556;51.194;3.800;2023-04-26T10:50:08;14.70;79.90
22779;DHT22;11556;51.194;3.800;2023-04-26T10:52:36;14.30;81.40
22779;DHT22;11556;51.194;3.800;2023-04-26T10:55:03;13.80;83.80
22779;DHT22;11556;51.194;3.800;2023-04-26T10:57:50;13.90;83.10
22779;DHT22;11556;51.194;3.800;2023-04-26T11:00:28;14.50;81.70
22779;DHT22;11556;51.194;3.800;2023-04-26T11:03:04;14.80;81.60
22779;DHT22;11556;51.194;3.800;2023-04-26T11:08:23;13.40;83.90
22779;DHT22;11556;51.194;3.800;2023-04-26T11:13:31;14.00;85.70
22779;DHT22;11556;51.194;3.800;2023-04-26T11:16:02;15.20;80.20
22779;DHT22;11556;51.194;3.800;2023-04-26T11:18:32;16.30;77.10
22779;DHT22;11556;51.194;3.800;2023-04-26T11:20:58;15.60;77.90
22779;DHT22;11556;51.194;3.800;2023-04-26T11:23:26;14.80;77.20
22779;DHT22;11556;51.194;3.800;2023-04-26T11:25:52;14.70;78.60
22779;DHT22;11556;51.194;3.800;2023-04-26T11:28:19;15.20;78.20
22779;DHT22;11556;51.194;3.800;2023-04-26T11:30:48;15.50;75.80
22779;DHT22;11556;51.194;3.800;2023-04-26T11:33:19;16.50;73.60
22779;DHT22;11556;51.194;3.800;2023-04-26T11:35:51;18.00;69.10
22779;DHT22;11556;51.194;3.800;2023-04-26T11:38:17;17.40;66.60
22779;DHT22;11556;51.194;3.800;2023-04-26T11:40:55;16.40;69.80
22779;DHT22;11556;51.194;3.800;2023-04-26T11:43:21;18.00;70.40
22779;DHT22;11556;51.194;3.800;2023-04-26T11:45:47;20.10;63.40
22779;DHT22;11556;51.194;3.800;2023-04-26T11:48:13;20.30;58.10
22779;DHT22;11556;51.194;3.800;2023-04-26T11:50:39;19.90;58.00
22779;DHT22;11556;51.194;3.800;2023-04-26T11:53:07;18.50;59.80
22779;DHT22;11556;51.194;3.800;2023-04-26T11:55:34;18.40;60.50
22779;DHT22;11556;51.194;3.800;2023-04-26T11:58:01;17.00;66.40
22779;DHT22;11556;51.194;3.800;2023-04-26T12:00:33;17.20;65.30
22779;DHT22;11556;51.194;3.800;2023-04-26T12:03:04;17.90;70.90
22779;DHT22;11556;51.194;3.800;2023-04-26T12:05:31;18.90;60.70
22779;DHT22;11556;51.194;3.800;2023-04-26T12:07:58;19.70;58.40
22779;DHT22;11556;51.194;3.800;2023-04-26T12:10:34;19.30;60.80
22779;DHT22;11556;51.194;3.800;2023-04-26T12:13:01;18.70;59.80
22779;DHT22;11556;51.194;3.800;2023-04-26T12:15:31;18.20;61.80
22779;DHT22;11556;51.194;3.800;2023-04-26T12:18:07;17.70;64.20
22779;DHT22;11556;51.194;3.800;2023-04-26T12:20:36;16.80;66.40
22779;DHT22;11556;51.194;3.800;2023-04-26T12:23:09;16.50;67.10
22779;DHT22;11556;51.194;3.800;2023-04-26T12:25:37;16.60;66.70
22779;DHT22;11556;51.194;3.800;2023-04-26T12:28:04;16.50;68.60
22779;DHT22;11556;51.194;3.800;2023-04-26T12:30:30;16.70;68.80
22779;DHT22;11556;51.194;3.800;2023-04-26T12:32:56;15.90;69.00
22779;DHT22;11556;51.194;3.800;2023-04-26T12:35:24;15.00;73.30
22779;DHT22;11556;51.194;3.800;2023-04-26T12:37:51;15.00;72.80
22779;DHT22;11556;51.194;3.800;2023-04-26T12:40:22;16.00;70.70
22779;DHT22;11556;51.194;3.800;2023-04-26T12:42:48;17.30;68.30
22779;DHT22;11556;51.194;3.800;2023-04-26T12:45:15;18.00;61.60
22779;DHT22;11556;51.194;3.800;2023-04-26T12:47:40;18.60;61.70
22779;DHT22;11556;51.194;3.800;2023-04-26T12:50:06;19.10;59.20
22779;DHT22;11556;51.194;3.800;2023-04-26T12:52:32;19.00;58.30
22779;DHT22;11556;51.194;3.800;2023-04-26T12:54:58;18.50;59.00
22779;DHT22;11556;51.194;3.800;2023-04-26T12:57:23;17.20;62.70
22779;DHT22;11556;51.194;3.800;2023-04-26T12:59:49;16.40;65.20
22779;DHT22;11556;51.194;3.800;2023-04-26T13:02:15;16.40;66.30
22779;DHT22;11556;51.194;3.800;2023-04-26T13:04:41;16.20;68.50
22779;DHT22;11556;51.194;3.800;2023-04-26T13:07:07;15.70;69.00
22779;DHT22;11556;51.194;3.800;2023-04-26T13:09:33;15.50;70.40
22779;DHT22;11556;51.194;3.800;2023-04-26T13:11:58;15.60;69.30
22779;DHT22;11556;51.194;3.800;2023-04-26T13:14:24;15.90;68.40
22779;DHT22;11556;51.194;3.800;2023-04-26T13:16:51;15.90;69.10
22779;DHT22;11556;51.194;3.800;2023-04-26T13:19:17;16.40;67.80
22779;DHT22;11556;51.194;3.800;2023-04-26T13:21:43;17.20;66.70
22779;DHT22;11556;51.194;3.800;2023-04-26T13:24:08;17.80;63.80
22779;DHT22;11556;51.194;3.800;2023-04-26T13:26:34;17.70;64.20
22779;DHT22;11556;51.194;3.800;2023-04-26T13:29:00;18.10;63.10
22779;DHT22;11556;51.194;3.800;2023-04-26T13:31:26;18.30;63.50
22779;DHT22;11556;51.194;3.800;2023-04-26T13:33:51;17.80;63.20
22779;DHT22;11556;51.194;3.800;2023-04-26T13:36:17;18.20;66.40
22779;DHT22;11556;51.194;3.800;2023-04-26T13:38:43;17.90;62.70
22779;DHT22;11556;51.194;3.800;2023-04-26T13:41:09;17.40;66.50
22779;DHT22;11556;51.194;3.800;2023-04-26T13:43:35;17.30;64.20
22779;DHT22;11556;51.194;3.800;2023-04-26T13:46:01;17.60;66.00
22779;DHT22;11556;51.194;3.800;2023-04-26T13:48:27;17.50;65.30
22779;DHT22;11556;51.194;3.800;2023-04-26T13:50:53;16.20;65.70
22779;DHT22;11556;51.194;3.800;2023-04-26T13:53:20;15.10;72.80
22779;DHT22;11556;51.194;3.800;2023-04-26T13:55:47;14.60;75.00
22779;DHT22;11556;51.194;3.800;2023-04-26T13:58:12;15.10;73.40
22779;DHT22;11556;51.194;3.800;2023-04-26T14:00:38;16.00;69.00
22779;DHT22;11556;51.194;3.800;2023-04-26T14:03:04;15.70;70.00
22779;DHT22;11556;51.194;3.800;2023-04-26T14:05:30;16.20;69.10
22779;DHT22;11556;51.194;3.800;2023-04-26T14:07:56;16.50;66.20
22779;DHT22;11556;51.194;3.800;2023-04-26T14:10:22;17.00;65.60
22779;DHT22;11556;51.194;3.800;2023-04-26T14:12:47;17.30;63.80
22779;DHT22;11556;51.194;3.800;2023-04-26T14:15:13;17.00;64.30
22779;DHT22;11556;51.194;3.800;2023-04-26T14:17:39;17.00;64.90
22779;DHT22;11556;51.194;3.800;2023-04-26T14:20:05;16.90;63.90
22779;DHT22;11556;51.194;3.800;2023-04-26T14:22:32;17.30;64.00
22779;DHT22;11556;51.194;3.800;2023-04-26T14:24:58;17.00;66.00
22779;DHT22;11556;51.194;3.800;2023-04-26T14:27:24;16.30;65.80
22779;DHT22;11556;51.194;3.800;2023-04-26T14:29:50;15.40;70.70
22779;DHT22;11556;51.194;3.800;2023-04-26T14:32:15;14.80;71.40
22779;DHT22;11556;51.194;3.800;2023-04-26T14:34:41;14.40;73.00
22779;DHT22;11556;51.194;3.800;2023-04-26T14:37:07;14.50;72.90
22779;DHT22;11556;51.194;3.800;2023-04-26T14:39:33;15.10;72.30
22779;DHT22;11556;51.194;3.800;2023-04-26T14:41:59;15.40;69.70
22779;DHT22;11556;51.194;3.800;2023-04-26T14:44:25;15.40;70.20
22779;DHT22;11556;51.194;3.800;2023-04-26T14:46:51;15.30;70.50
22779;DHT22;11556;51.194;3.800;2023-04-26T14:49:18;15.50;69.30
22779;DHT22;11556;51.194;3.800;2023-04-26T14:51:44;14.60;72.10
22779;DHT22;11556;51.194;3.800;2023-04-26T14:54:09;14.60;73.60
22779;DHT22;11556;51.194;3.800;2023-04-26T14:56:35;15.10;71.80
22779;DHT22;11556;51.194;3.800;2023-04-26T14:59:02;15.40;70.00
22779;DHT22;11556;51.194;3.800;2023-04-26T15:01:28;15.10;71.80
22779;DHT22;11556;51.194;3.800;2023-04-26T15:03:54;15.30;72.10
22779;DHT22;11556;51.194;3.800;2023-04-26T15:06:20;14.70;72.70
22779;DHT22;11556;51.194;3.800;2023-04-26T15:08:46;15.00;73.30
22779;DHT22;11556;51.194;3.800;2023-04-26T15:11:12;14.40;76.90
22779;DHT22;11556;51.194;3.800;2023-04-26T15:13:37;14.80;75.10
22779;DHT22;11556;51.194;3.800;2023-04-26T15:16:03;14.20;76.20
22779;DHT22;11556;51.194;3.800;2023-04-26T15:18:30;13.50;76.10
22779;DHT22;11556;51.194;3.800;2023-04-26T15:20:56;13.30;79.90
22779;DHT22;11556;51.194;3.800;2023-04-26T15:23:22;13.20;80.00
22779;DHT22;11556;51.194;3.800;2023-04-26T15:25:47;13.70;78.20
22779;DHT22;11556;51.194;3.800;2023-04-26T15:28:13;14.10;76.80
22779;DHT22;11556;51.194;3.800;2023-04-26T15:30:39;14.30;74.80
22779;DHT22;11556;51.194;3.800;2023-04-26T15:33:05;14.70;75.50
22779;DHT22;11556;51.194;3.800;2023-04-26T15:35:31;15.30;73.10
22779;DHT22;11556;51.194;3.800;2023-04-26T15:37:56;15.60;71.80
22779;DHT22;11556;51.194;3.800;2023-04-26T15:40:22;15.60;72.60
22779;DHT22;11556;51.194;3.800;2023-04-26T15:42:49;15.50;71.40
22779;DHT22;11556;51.194;3.800;2023-04-26T15:45:17;15.40;72.20
22779;DHT22;11556;51.194;3.800;2023-04-26T15:47:43;15.30;71.20
22779;DHT22;11556;51.194;3.800;2023-04-26T15:50:09;15.60;70.40